sensor_id;sensor_type;location;lat;lon;timestamp;P1;durP1;ratioP1;P2;durP2;ratioP2
10120;SDS011;5100;45.176;5.714;2022-10-22T00:00:23;5.43;;;4.22;;
10120;SDS011;5100;45.176;5.714;2022-10-22T00:02:49;6.40;;;3.97;;
10120;SDS011;5100;45.176;5.714;2022-10-22T00:05:15;9.40;;;4.70;;
10120;SDS011;5100;45.176;5.714;2022-10-22T00:07:41;7.03;;;5.10;;
10120;SDS011;5100;45.176;5.714;2022-10-22T00:10:07;12.60;;;6.05;;
10120;SDS011;5100;45.176;5.714;2022-10-22T00:12:34;10.88;;;5.95;;
10120;SDS011;5100;45.176;5.714;2022-10-22T00:15:00;4.90;;;3.55;;
10120;SDS011;5100;45.176;5.714;2022-10-22T00:17:26;6.00;;;4.22;;
10120;SDS011;5100;45.176;5.714;2022-10-22T00:19:52;3.75;;;2.90;;
10120;SDS011;5100;45.176;5.714;2022-10-22T00:22:18;4.55;;;3.37;;
10120;SDS011;5100;45.176;5.714;2022-10-22T00:24:44;4.18;;;3.60;;
10120;SDS011;5100;45.176;5.714;2022-10-22T00:27:10;4.80;;;4.40;;
10120;SDS011;5100;45.176;5.714;2022-10-22T00:29:37;5.78;;;5.28;;
10120;SDS011;5100;45.176;5.714;2022-10-22T00:32:03;5.75;;;4.70;;
10120;SDS011;5100;45.176;5.714;2022-10-22T00:34:30;5.45;;;4.40;;
10120;SDS011;5100;45.176;5.714;2022-10-22T00:36:57;4.37;;;3.90;;
10120;SDS011;5100;45.176;5.714;2022-10-22T00:39:25;4.37;;;3.75;;
10120;SDS011;5100;45.176;5.714;2022-10-22T00:41:52;5.95;;;3.92;;
10120;SDS011;5100;45.176;5.714;2022-10-22T00:47:24;4.35;;;3.25;;
10120;SDS011;5100;45.176;5.714;2022-10-22T00:49:53;3.60;;;3.30;;
10120;SDS011;5100;45.176;5.714;2022-10-22T00:52:21;5.53;;;3.60;;
10120;SDS011;5100;45.176;5.714;2022-10-22T00:54:48;6.12;;;3.87;;
10120;SDS011;5100;45.176;5.714;2022-10-22T00:57:16;5.10;;;4.60;;
10120;SDS011;5100;45.176;5.714;2022-10-22T00:59:44;4.32;;;3.92;;
10120;SDS011;5100;45.176;5.714;2022-10-22T01:02:11;5.87;;;4.03;;
10120;SDS011;5100;45.176;5.714;2022-10-22T01:04:37;4.93;;;4.03;;
10120;SDS011;5100;45.176;5.714;2022-10-22T01:07:05;5.50;;;3.85;;
10120;SDS011;5100;45.176;5.714;2022-10-22T01:09:35;3.60;;;3.30;;
10120;SDS011;5100;45.176;5.714;2022-10-22T01:12:18;3.83;;;3.10;;
10120;SDS011;5100;45.176;5.714;2022-10-22T01:20:49;4.82;;;2.62;;
10120;SDS011;5100;45.176;5.714;2022-10-22T01:29:15;2.60;;;2.40;;
10120;SDS011;5100;45.176;5.714;2022-10-22T01:31:47;2.47;;;2.28;;
10120;SDS011;5100;45.176;5.714;2022-10-22T01:34:27;2.45;;;2.10;;
10120;SDS011;5100;45.176;5.714;2022-10-22T01:36:55;3.45;;;2.28;;
10120;SDS011;5100;45.176;5.714;2022-10-22T01:39:23;2.42;;;2.22;;
10120;SDS011;5100;45.176;5.714;2022-10-22T01:41:53;3.65;;;2.08;;
10120;SDS011;5100;45.176;5.714;2022-10-22T01:44:22;2.92;;;2.08;;
10120;SDS011;5100;45.176;5.714;2022-10-22T01:46:56;2.25;;;1.98;;
10120;SDS011;5100;45.176;5.714;2022-10-22T01:52:42;1.80;;;1.70;;
10120;SDS011;5100;45.176;5.714;2022-10-22T02:00:37;3.40;;;2.20;;
10120;SDS011;5100;45.176;5.714;2022-10-22T02:03:08;2.78;;;1.50;;
10120;SDS011;5100;45.176;5.714;2022-10-22T02:06:02;2.62;;;1.60;;
10120;SDS011;5100;45.176;5.714;2022-10-22T02:08:30;2.03;;;1.70;;
10120;SDS011;5100;45.176;5.714;2022-10-22T02:10:58;2.47;;;1.60;;
10120;SDS011;5100;45.176;5.714;2022-10-22T02:13:29;3.20;;;1.70;;
10120;SDS011;5100;45.176;5.714;2022-10-22T02:16:01;2.53;;;1.62;;
10120;SDS011;5100;45.176;5.714;2022-10-22T02:18:31;1.85;;;1.70;;
10120;SDS011;5100;45.176;5.714;2022-10-22T02:20:59;3.85;;;1.90;;
10120;SDS011;5100;45.176;5.714;2022-10-22T02:23:26;1.85;;;1.67;;
10120;SDS011;5100;45.176;5.714;2022-10-22T02:25:55;1.60;;;1.50;;
10120;SDS011;5100;45.176;5.714;2022-10-22T02:28:36;2.78;;;1.70;;
10120;SDS011;5100;45.176;5.714;2022-10-22T02:31:20;2.87;;;1.60;;
10120;SDS011;5100;45.176;5.714;2022-10-22T02:33:51;4.10;;;1.65;;
10120;SDS011;5100;45.176;5.714;2022-10-22T02:36:20;2.03;;;1.80;;
10120;SDS011;5100;45.176;5.714;2022-10-22T02:38:48;2.25;;;1.90;;
10120;SDS011;5100;45.176;5.714;2022-10-22T02:41:16;2.65;;;1.80;;
10120;SDS011;5100;45.176;5.714;2022-10-22T02:43:44;2.58;;;1.75;;
10120;SDS011;5100;45.176;5.714;2022-10-22T02:46:14;2.17;;;1.70;;
10120;SDS011;5100;45.176;5.714;2022-10-22T02:48:40;3.75;;;2.10;;
10120;SDS011;5100;45.176;5.714;2022-10-22T02:51:06;1.67;;;1.50;;
10120;SDS011;5100;45.176;5.714;2022-10-22T02:53:32;1.70;;;1.60;;
10120;SDS011;5100;45.176;5.714;2022-10-22T02:55:58;1.60;;;1.50;;
10120;SDS011;5100;45.176;5.714;2022-10-22T02:58:24;1.83;;;1.60;;
10120;SDS011;5100;45.176;5.714;2022-10-22T03:00:50;4.32;;;1.73;;
10120;SDS011;5100;45.176;5.714;2022-10-22T03:03:16;2.10;;;1.55;;
10120;SDS011;5100;45.176;5.714;2022-10-22T03:05:42;2.55;;;1.40;;
10120;SDS011;5100;45.176;5.714;2022-10-22T03:08:08;1.55;;;1.35;;
10120;SDS011;5100;45.176;5.714;2022-10-22T03:10:35;2.92;;;1.60;;
10120;SDS011;5100;45.176;5.714;2022-10-22T03:13:01;2.08;;;1.50;;
10120;SDS011;5100;45.176;5.714;2022-10-22T03:15:26;1.45;;;1.30;;
10120;SDS011;5100;45.176;5.714;2022-10-22T03:17:53;1.92;;;1.58;;
10120;SDS011;5100;45.176;5.714;2022-10-22T03:20:19;2.62;;;1.50;;
10120;SDS011;5100;45.176;5.714;2022-10-22T03:22:45;2.92;;;1.77;;
10120;SDS011;5100;45.176;5.714;2022-10-22T03:25:12;2.03;;;1.60;;
10120;SDS011;5100;45.176;5.714;2022-10-22T03:27:43;2.47;;;1.70;;
10120;SDS011;5100;45.176;5.714;2022-10-22T03:30:09;4.22;;;1.85;;
10120;SDS011;5100;45.176;5.714;2022-10-22T03:32:36;3.22;;;1.50;;
10120;SDS011;5100;45.176;5.714;2022-10-22T03:35:02;1.85;;;1.50;;
10120;SDS011;5100;45.176;5.714;2022-10-22T03:37:29;4.72;;;1.60;;
10120;SDS011;5100;45.176;5.714;2022-10-22T03:39:57;1.50;;;1.40;;
10120;SDS011;5100;45.176;5.714;2022-10-22T03:42:23;3.62;;;1.80;;
10120;SDS011;5100;45.176;5.714;2022-10-22T03:44:49;2.33;;;1.60;;
10120;SDS011;5100;45.176;5.714;2022-10-22T03:47:16;3.28;;;1.75;;
10120;SDS011;5100;45.176;5.714;2022-10-22T03:49:42;1.65;;;1.55;;
10120;SDS011;5100;45.176;5.714;2022-10-22T03:52:12;2.70;;;1.40;;
10120;SDS011;5100;45.176;5.714;2022-10-22T03:54:39;1.92;;;1.30;;
10120;SDS011;5100;45.176;5.714;2022-10-22T03:57:06;2.85;;;1.70;;
10120;SDS011;5100;45.176;5.714;2022-10-22T03:59:34;1.80;;;1.62;;
10120;SDS011;5100;45.176;5.714;2022-10-22T04:02:01;3.67;;;1.70;;
10120;SDS011;5100;45.176;5.714;2022-10-22T04:04:27;3.08;;;1.67;;
10120;SDS011;5100;45.176;5.714;2022-10-22T04:06:53;4.03;;;1.52;;
10120;SDS011;5100;45.176;5.714;2022-10-22T04:09:19;1.70;;;1.60;;
10120;SDS011;5100;45.176;5.714;2022-10-22T04:11:46;1.83;;;1.62;;
10120;SDS011;5100;45.176;5.714;2022-10-22T04:14:11;1.98;;;1.67;;
10120;SDS011;5100;45.176;5.714;2022-10-22T04:16:38;1.40;;;1.30;;
10120;SDS011;5100;45.176;5.714;2022-10-22T04:19:05;2.97;;;1.30;;
10120;SDS011;5100;45.176;5.714;2022-10-22T04:21:32;1.80;;;1.33;;
10120;SDS011;5100;45.176;5.714;2022-10-22T04:23:58;2.42;;;1.73;;
10120;SDS011;5100;45.176;5.714;2022-10-22T04:26:24;2.95;;;1.50;;
10120;SDS011;5100;45.176;5.714;2022-10-22T04:28:51;2.05;;;1.52;;
10120;SDS011;5100;45.176;5.714;2022-10-22T04:31:18;2.62;;;1.60;;
10120;SDS011;5100;45.176;5.714;2022-10-22T04:33:51;2.58;;;1.73;;
10120;SDS011;5100;45.176;5.714;2022-10-22T04:36:18;1.77;;;1.60;;
10120;SDS011;5100;45.176;5.714;2022-10-22T04:38:45;2.90;;;1.62;;
10120;SDS011;5100;45.176;5.714;2022-10-22T04:41:13;1.90;;;1.80;;
10120;SDS011;5100;45.176;5.714;2022-10-22T04:43:44;3.20;;;1.92;;
10120;SDS011;5100;45.176;5.714;2022-10-22T04:46:10;4.12;;;2.00;;
10120;SDS011;5100;45.176;5.714;2022-10-22T04:48:39;3.17;;;1.92;;
10120;SDS011;5100;45.176;5.714;2022-10-22T04:51:07;2.40;;;2.20;;
10120;SDS011;5100;45.176;5.714;2022-10-22T04:53:35;3.35;;;2.30;;
10120;SDS011;5100;45.176;5.714;2022-10-22T04:56:14;2.83;;;2.10;;
10120;SDS011;5100;45.176;5.714;2022-10-22T04:58:41;4.12;;;2.12;;
10120;SDS011;5100;45.176;5.714;2022-10-22T05:01:12;2.72;;;2.05;;
10120;SDS011;5100;45.176;5.714;2022-10-22T05:03:46;2.90;;;2.00;;
10120;SDS011;5100;45.176;5.714;2022-10-22T05:06:14;2.33;;;2.10;;
10120;SDS011;5100;45.176;5.714;2022-10-22T05:08:41;2.22;;;2.08;;
10120;SDS011;5100;45.176;5.714;2022-10-22T05:11:11;2.03;;;1.92;;
10120;SDS011;5100;45.176;5.714;2022-10-22T05:13:43;2.55;;;2.15;;
10120;SDS011;5100;45.176;5.714;2022-10-22T05:16:09;2.53;;;2.08;;
10120;SDS011;5100;45.176;5.714;2022-10-22T05:18:36;2.10;;;1.90;;
10120;SDS011;5100;45.176;5.714;2022-10-22T05:21:06;2.37;;;2.17;;
10120;SDS011;5100;45.176;5.714;2022-10-22T05:23:34;2.00;;;1.80;;
10120;SDS011;5100;45.176;5.714;2022-10-22T05:26:03;2.65;;;1.90;;
10120;SDS011;5100;45.176;5.714;2022-10-22T05:28:30;2.42;;;2.10;;
10120;SDS011;5100;45.176;5.714;2022-10-22T05:30:58;2.90;;;1.87;;
10120;SDS011;5100;45.176;5.714;2022-10-22T05:33:26;3.30;;;2.03;;
10120;SDS011;5100;45.176;5.714;2022-10-22T05:35:53;1.92;;;1.80;;
10120;SDS011;5100;45.176;5.714;2022-10-22T05:38:19;2.10;;;1.70;;
10120;SDS011;5100;45.176;5.714;2022-10-22T05:40:45;2.08;;;1.52;;
10120;SDS011;5100;45.176;5.714;2022-10-22T05:43:12;3.30;;;1.50;;
10120;SDS011;5100;45.176;5.714;2022-10-22T05:45:38;1.85;;;1.62;;
10120;SDS011;5100;45.176;5.714;2022-10-22T05:48:05;3.40;;;1.70;;
10120;SDS011;5100;45.176;5.714;2022-10-22T05:50:36;4.40;;;1.80;;
10120;SDS011;5100;45.176;5.714;2022-10-22T05:53:03;2.53;;;1.83;;
10120;SDS011;5100;45.176;5.714;2022-10-22T05:55:30;1.87;;;1.77;;
10120;SDS011;5100;45.176;5.714;2022-10-22T05:58:02;3.25;;;2.20;;
10120;SDS011;5100;45.176;5.714;2022-10-22T06:00:28;1.90;;;1.80;;
10120;SDS011;5100;45.176;5.714;2022-10-22T06:02:54;2.50;;;2.00;;
10120;SDS011;5100;45.176;5.714;2022-10-22T06:05:20;2.20;;;2.00;;
10120;SDS011;5100;45.176;5.714;2022-10-22T06:07:46;3.05;;;2.25;;
10120;SDS011;5100;45.176;5.714;2022-10-22T06:10:13;3.40;;;2.00;;
10120;SDS011;5100;45.176;5.714;2022-10-22T06:12:42;2.20;;;1.80;;
10120;SDS011;5100;45.176;5.714;2022-10-22T06:15:11;2.35;;;2.08;;
10120;SDS011;5100;45.176;5.714;2022-10-22T06:17:45;1.62;;;1.50;;
10120;SDS011;5100;45.176;5.714;2022-10-22T06:20:12;2.85;;;1.60;;
10120;SDS011;5100;45.176;5.714;2022-10-22T06:22:39;4.40;;;1.60;;
10120;SDS011;5100;45.176;5.714;2022-10-22T06:25:05;2.30;;;1.70;;
10120;SDS011;5100;45.176;5.714;2022-10-22T06:27:35;2.97;;;2.03;;
10120;SDS011;5100;45.176;5.714;2022-10-22T06:30:01;2.00;;;1.80;;
10120;SDS011;5100;45.176;5.714;2022-10-22T06:32:27;2.25;;;2.05;;
10120;SDS011;5100;45.176;5.714;2022-10-22T06:34:53;2.12;;;1.92;;
10120;SDS011;5100;45.176;5.714;2022-10-22T06:37:19;4.35;;;2.33;;
10120;SDS011;5100;45.176;5.714;2022-10-22T06:39:45;2.70;;;2.15;;
10120;SDS011;5100;45.176;5.714;2022-10-22T06:42:11;2.53;;;1.90;;
10120;SDS011;5100;45.176;5.714;2022-10-22T06:44:38;2.62;;;2.05;;
10120;SDS011;5100;45.176;5.714;2022-10-22T06:47:04;2.00;;;1.90;;
10120;SDS011;5100;45.176;5.714;2022-10-22T06:49:30;2.08;;;1.90;;
10120;SDS011;5100;45.176;5.714;2022-10-22T06:51:56;1.83;;;1.60;;
10120;SDS011;5100;45.176;5.714;2022-10-22T06:54:22;2.60;;;1.95;;
10120;SDS011;5100;45.176;5.714;2022-10-22T06:56:48;3.37;;;1.87;;
10120;SDS011;5100;45.176;5.714;2022-10-22T06:59:14;2.15;;;1.90;;
10120;SDS011;5100;45.176;5.714;2022-10-22T07:01:40;5.07;;;1.95;;
10120;SDS011;5100;45.176;5.714;2022-10-22T07:04:07;2.40;;;2.20;;
10120;SDS011;5100;45.176;5.714;2022-10-22T07:06:34;3.55;;;1.98;;
10120;SDS011;5100;45.176;5.714;2022-10-22T07:09:00;4.50;;;2.55;;
10120;SDS011;5100;45.176;5.714;2022-10-22T07:11:27;2.85;;;2.15;;
10120;SDS011;5100;45.176;5.714;2022-10-22T07:13:56;2.35;;;2.05;;
10120;SDS011;5100;45.176;5.714;2022-10-22T07:16:23;2.40;;;2.20;;
10120;SDS011;5100;45.176;5.714;2022-10-22T07:18:49;4.40;;;2.30;;
10120;SDS011;5100;45.176;5.714;2022-10-22T07:21:16;2.90;;;2.22;;
10120;SDS011;5100;45.176;5.714;2022-10-22T07:23:43;2.62;;;2.42;;
10120;SDS011;5100;45.176;5.714;2022-10-22T07:26:10;3.05;;;2.55;;
10120;SDS011;5100;45.176;5.714;2022-10-22T07:28:38;4.20;;;3.10;;
10120;SDS011;5100;45.176;5.714;2022-10-22T07:31:06;3.65;;;3.33;;
10120;SDS011;5100;45.176;5.714;2022-10-22T07:33:34;3.45;;;3.15;;
10120;SDS011;5100;45.176;5.714;2022-10-22T07:36:01;3.42;;;3.20;;
10120;SDS011;5100;45.176;5.714;2022-10-22T07:38:34;4.18;;;3.44;;
10120;SDS011;5100;45.176;5.714;2022-10-22T07:41:00;4.37;;;3.28;;
10120;SDS011;5100;45.176;5.714;2022-10-22T07:43:27;6.62;;;3.72;;
10120;SDS011;5100;45.176;5.714;2022-10-22T07:45:53;4.35;;;3.95;;
10120;SDS011;5100;45.176;5.714;2022-10-22T07:48:22;4.03;;;3.72;;
10120;SDS011;5100;45.176;5.714;2022-10-22T07:50:48;3.83;;;3.37;;
10120;SDS011;5100;45.176;5.714;2022-10-22T07:53:16;6.32;;;3.90;;
10120;SDS011;5100;45.176;5.714;2022-10-22T07:55:42;4.53;;;3.20;;
10120;SDS011;5100;45.176;5.714;2022-10-22T07:58:07;3.10;;;2.90;;
10120;SDS011;5100;45.176;5.714;2022-10-22T08:00:34;4.10;;;3.42;;
10120;SDS011;5100;45.176;5.714;2022-10-22T08:03:00;2.80;;;2.53;;
10120;SDS011;5100;45.176;5.714;2022-10-22T08:05:26;5.80;;;2.95;;
10120;SDS011;5100;45.176;5.714;2022-10-22T08:07:51;4.07;;;2.58;;
10120;SDS011;5100;45.176;5.714;2022-10-22T08:10:18;2.70;;;2.42;;
10120;SDS011;5100;45.176;5.714;2022-10-22T08:12:43;2.60;;;2.40;;
10120;SDS011;5100;45.176;5.714;2022-10-22T08:15:09;2.70;;;2.50;;
10120;SDS011;5100;45.176;5.714;2022-10-22T08:17:35;2.50;;;2.30;;
10120;SDS011;5100;45.176;5.714;2022-10-22T08:20:01;2.65;;;2.35;;
10120;SDS011;5100;45.176;5.714;2022-10-22T08:22:28;3.62;;;2.35;;
10120;SDS011;5100;45.176;5.714;2022-10-22T08:24:54;2.05;;;1.85;;
10120;SDS011;5100;45.176;5.714;2022-10-22T08:27:20;2.90;;;1.85;;
10120;SDS011;5100;45.176;5.714;2022-10-22T08:29:46;2.08;;;1.87;;
10120;SDS011;5100;45.176;5.714;2022-10-22T08:32:12;1.92;;;1.80;;
10120;SDS011;5100;45.176;5.714;2022-10-22T08:34:38;2.55;;;2.10;;
10120;SDS011;5100;45.176;5.714;2022-10-22T08:37:04;4.03;;;1.70;;
10120;SDS011;5100;45.176;5.714;2022-10-22T08:39:33;2.55;;;1.60;;
10120;SDS011;5100;45.176;5.714;2022-10-22T08:42:03;1.65;;;1.50;;
10120;SDS011;5100;45.176;5.714;2022-10-22T08:50:21;1.80;;;1.48;;
10120;SDS011;5100;45.176;5.714;2022-10-22T08:52:58;2.58;;;1.50;;
10120;SDS011;5100;45.176;5.714;2022-10-22T08:55:29;1.73;;;1.62;;
10120;SDS011;5100;45.176;5.714;2022-10-22T09:00:44;3.80;;;1.60;;
10120;SDS011;5100;45.176;5.714;2022-10-22T09:05:55;1.80;;;1.50;;
10120;SDS011;5100;45.176;5.714;2022-10-22T09:08:35;1.52;;;1.42;;
10120;SDS011;5100;45.176;5.714;2022-10-22T09:13:48;1.92;;;1.48;;
10120;SDS011;5100;45.176;5.714;2022-10-22T09:16:19;1.30;;;1.20;;
10120;SDS011;5100;45.176;5.714;2022-10-22T09:24:57;3.37;;;1.65;;
10120;SDS011;5100;45.176;5.714;2022-10-22T09:27:28;1.35;;;1.25;;
10120;SDS011;5100;45.176;5.714;2022-10-22T09:29:55;1.62;;;1.02;;
10120;SDS011;5100;45.176;5.714;2022-10-22T09:32:21;1.87;;;1.30;;
10120;SDS011;5100;45.176;5.714;2022-10-22T09:34:48;3.33;;;1.37;;
10120;SDS011;5100;45.176;5.714;2022-10-22T09:37:16;3.95;;;1.52;;
10120;SDS011;5100;45.176;5.714;2022-10-22T09:39:44;0.90;;;0.90;;
10120;SDS011;5100;45.176;5.714;2022-10-22T09:42:16;2.58;;;1.00;;
10120;SDS011;5100;45.176;5.714;2022-10-22T09:44:45;1.52;;;0.90;;
10120;SDS011;5100;45.176;5.714;2022-10-22T09:47:28;1.15;;;1.10;;
10120;SDS011;5100;45.176;5.714;2022-10-22T09:50:21;2.72;;;1.00;;
10120;SDS011;5100;45.176;5.714;2022-10-22T09:52:57;2.50;;;1.20;;
10120;SDS011;5100;45.176;5.714;2022-10-22T09:55:43;1.30;;;1.20;;
10120;SDS011;5100;45.176;5.714;2022-10-22T09:58:14;2.67;;;1.02;;
10120;SDS011;5100;45.176;5.714;2022-10-22T10:00:43;1.25;;;1.17;;
10120;SDS011;5100;45.176;5.714;2022-10-22T10:03:14;1.98;;;1.00;;
10120;SDS011;5100;45.176;5.714;2022-10-22T10:06:01;1.15;;;1.00;;
10120;SDS011;5100;45.176;5.714;2022-10-22T10:08:28;1.77;;;1.02;;
10120;SDS011;5100;45.176;5.714;2022-10-22T10:10:58;1.30;;;0.90;;
10120;SDS011;5100;45.176;5.714;2022-10-22T10:25:11;2.03;;;1.20;;
10120;SDS011;5100;45.176;5.714;2022-10-22T10:30:46;1.70;;;1.15;;
10120;SDS011;5100;45.176;5.714;2022-10-22T10:33:33;1.20;;;1.10;;
10120;SDS011;5100;45.176;5.714;2022-10-22T10:36:36;2.95;;;1.10;;
10120;SDS011;5100;45.176;5.714;2022-10-22T10:44:56;2.08;;;1.17;;
10120;SDS011;5100;45.176;5.714;2022-10-22T10:50:28;1.80;;;1.10;;
10120;SDS011;5100;45.176;5.714;2022-10-22T10:53:21;3.20;;;1.33;;
10120;SDS011;5100;45.176;5.714;2022-10-22T10:59:48;2.58;;;0.90;;
10120;SDS011;5100;45.176;5.714;2022-10-22T11:07:46;1.12;;;1.00;;
10120;SDS011;5100;45.176;5.714;2022-10-22T11:13:07;1.70;;;1.00;;
10120;SDS011;5100;45.176;5.714;2022-10-22T11:18:48;2.47;;;1.08;;
10120;SDS011;5100;45.176;5.714;2022-10-22T11:21:36;1.00;;;1.00;;
10120;SDS011;5100;45.176;5.714;2022-10-22T11:24:17;1.58;;;1.10;;
10120;SDS011;5100;45.176;5.714;2022-10-22T11:26:50;1.12;;;1.00;;
10120;SDS011;5100;45.176;5.714;2022-10-22T11:29:22;1.17;;;0.90;;
10120;SDS011;5100;45.176;5.714;2022-10-22T11:31:53;2.47;;;0.93;;
10120;SDS011;5100;45.176;5.714;2022-10-22T11:34:27;0.80;;;0.80;;
10120;SDS011;5100;45.176;5.714;2022-10-22T11:37:01;1.98;;;0.90;;
10120;SDS011;5100;45.176;5.714;2022-10-22T11:39:42;1.15;;;1.02;;
10120;SDS011;5100;45.176;5.714;2022-10-22T11:42:29;2.40;;;1.00;;
10120;SDS011;5100;45.176;5.714;2022-10-22T11:45:43;0.90;;;0.90;;
10120;SDS011;5100;45.176;5.714;2022-10-22T11:58:38;1.50;;;1.12;;
10120;SDS011;5100;45.176;5.714;2022-10-22T12:03:37;1.55;;;1.00;;
10120;SDS011;5100;45.176;5.714;2022-10-22T12:06:25;1.33;;;0.98;;
10120;SDS011;5100;45.176;5.714;2022-10-22T12:16:51;0.88;;;0.88;;
10120;SDS011;5100;45.176;5.714;2022-10-22T12:19:31;1.10;;;1.00;;
10120;SDS011;5100;45.176;5.714;2022-10-22T12:22:12;1.27;;;0.98;;
10120;SDS011;5100;45.176;5.714;2022-10-22T12:24:41;1.40;;;1.00;;
10120;SDS011;5100;45.176;5.714;2022-10-22T12:30:14;1.20;;;0.80;;
10120;SDS011;5100;45.176;5.714;2022-10-22T12:32:43;0.90;;;0.90;;
10120;SDS011;5100;45.176;5.714;2022-10-22T12:35:16;1.10;;;1.05;;
10120;SDS011;5100;45.176;5.714;2022-10-22T12:37:44;0.95;;;0.88;;
10120;SDS011;5100;45.176;5.714;2022-10-22T12:42:50;1.02;;;0.90;;
10120;SDS011;5100;45.176;5.714;2022-10-22T12:45:28;0.73;;;0.73;;
10120;SDS011;5100;45.176;5.714;2022-10-22T12:47:56;0.80;;;0.80;;
10120;SDS011;5100;45.176;5.714;2022-10-22T12:50:34;0.90;;;0.90;;
10120;SDS011;5100;45.176;5.714;2022-10-22T12:55:53;1.23;;;1.10;;
10120;SDS011;5100;45.176;5.714;2022-10-22T12:58:21;0.90;;;0.90;;
10120;SDS011;5100;45.176;5.714;2022-10-22T13:00:54;0.95;;;0.80;;
10120;SDS011;5100;45.176;5.714;2022-10-22T13:03:25;0.75;;;0.75;;
10120;SDS011;5100;45.176;5.714;2022-10-22T13:05:53;1.45;;;0.90;;
10120;SDS011;5100;45.176;5.714;2022-10-22T13:08:20;0.85;;;0.85;;
10120;SDS011;5100;45.176;5.714;2022-10-22T13:10:52;3.17;;;0.75;;
10120;SDS011;5100;45.176;5.714;2022-10-22T13:13:29;1.00;;;1.00;;
10120;SDS011;5100;45.176;5.714;2022-10-22T13:16:23;1.60;;;0.75;;
10120;SDS011;5100;45.176;5.714;2022-10-22T13:18:52;1.55;;;1.00;;
10120;SDS011;5100;45.176;5.714;2022-10-22T13:21:23;1.10;;;1.00;;
10120;SDS011;5100;45.176;5.714;2022-10-22T13:23:51;1.10;;;1.00;;
10120;SDS011;5100;45.176;5.714;2022-10-22T13:26:19;2.75;;;0.80;;
10120;SDS011;5100;45.176;5.714;2022-10-22T13:28:49;1.17;;;1.08;;
10120;SDS011;5100;45.176;5.714;2022-10-22T13:31:24;2.17;;;0.98;;
10120;SDS011;5100;45.176;5.714;2022-10-22T13:33:55;5.65;;;1.00;;
10120;SDS011;5100;45.176;5.714;2022-10-22T13:36:24;1.37;;;1.00;;
10120;SDS011;5100;45.176;5.714;2022-10-22T13:38:50;4.75;;;1.40;;
10120;SDS011;5100;45.176;5.714;2022-10-22T13:41:37;1.08;;;1.00;;
10120;SDS011;5100;45.176;5.714;2022-10-22T13:44:03;0.80;;;0.80;;
10120;SDS011;5100;45.176;5.714;2022-10-22T13:46:28;1.33;;;0.95;;
10120;SDS011;5100;45.176;5.714;2022-10-22T13:48:55;1.52;;;0.90;;
10120;SDS011;5100;45.176;5.714;2022-10-22T13:51:28;1.75;;;1.05;;
10120;SDS011;5100;45.176;5.714;2022-10-22T13:53:59;0.70;;;0.70;;
10120;SDS011;5100;45.176;5.714;2022-10-22T13:56:28;1.15;;;1.00;;
10120;SDS011;5100;45.176;5.714;2022-10-22T13:58:53;1.92;;;0.90;;
10120;SDS011;5100;45.176;5.714;2022-10-22T14:01:21;2.05;;;0.90;;
10120;SDS011;5100;45.176;5.714;2022-10-22T14:03:52;2.10;;;0.80;;
10120;SDS011;5100;45.176;5.714;2022-10-22T14:06:22;0.88;;;0.88;;
10120;SDS011;5100;45.176;5.714;2022-10-22T14:08:50;1.65;;;0.80;;
10120;SDS011;5100;45.176;5.714;2022-10-22T14:11:21;1.30;;;0.90;;
10120;SDS011;5100;45.176;5.714;2022-10-22T14:13:47;2.72;;;1.00;;
10120;SDS011;5100;45.176;5.714;2022-10-22T14:16:20;0.80;;;0.80;;
10120;SDS011;5100;45.176;5.714;2022-10-22T14:18:48;1.95;;;0.90;;
10120;SDS011;5100;45.176;5.714;2022-10-22T14:21:15;1.02;;;0.88;;
10120;SDS011;5100;45.176;5.714;2022-10-22T14:23:43;0.77;;;0.77;;
10120;SDS011;5100;45.176;5.714;2022-10-22T14:26:17;1.58;;;0.70;;
10120;SDS011;5100;45.176;5.714;2022-10-22T14:28:49;1.55;;;0.80;;
10120;SDS011;5100;45.176;5.714;2022-10-22T14:31:15;0.80;;;0.80;;
10120;SDS011;5100;45.176;5.714;2022-10-22T14:33:41;0.98;;;0.80;;
10120;SDS011;5100;45.176;5.714;2022-10-22T14:36:09;1.05;;;0.95;;
10120;SDS011;5100;45.176;5.714;2022-10-22T14:38:37;1.35;;;1.00;;
10120;SDS011;5100;45.176;5.714;2022-10-22T14:41:04;0.80;;;0.80;;
10120;SDS011;5100;45.176;5.714;2022-10-22T14:43:44;3.25;;;1.15;;
10120;SDS011;5100;45.176;5.714;2022-10-22T14:46:11;1.10;;;1.00;;
10120;SDS011;5100;45.176;5.714;2022-10-22T14:48:39;1.90;;;1.00;;
10120;SDS011;5100;45.176;5.714;2022-10-22T14:51:10;1.08;;;0.88;;
10120;SDS011;5100;45.176;5.714;2022-10-22T14:53:44;1.17;;;1.00;;
10120;SDS011;5100;45.176;5.714;2022-10-22T14:56:12;1.48;;;1.20;;
10120;SDS011;5100;45.176;5.714;2022-10-22T14:58:39;2.17;;;1.10;;
10120;SDS011;5100;45.176;5.714;2022-10-22T15:01:05;1.45;;;1.00;;
10120;SDS011;5100;45.176;5.714;2022-10-22T15:03:32;1.65;;;1.00;;
10120;SDS011;5100;45.176;5.714;2022-10-22T15:05:58;1.25;;;1.10;;
10120;SDS011;5100;45.176;5.714;2022-10-22T15:08:25;0.65;;;0.65;;
10120;SDS011;5100;45.176;5.714;2022-10-22T15:10:58;1.52;;;0.98;;
10120;SDS011;5100;45.176;5.714;2022-10-22T15:13:26;2.08;;;0.95;;
10120;SDS011;5100;45.176;5.714;2022-10-22T15:15:53;0.90;;;0.90;;
10120;SDS011;5100;45.176;5.714;2022-10-22T15:18:20;0.80;;;0.80;;
10120;SDS011;5100;45.176;5.714;2022-10-22T15:21:21;2.15;;;0.98;;
10120;SDS011;5100;45.176;5.714;2022-10-22T15:23:41;0.85;;;0.82;;
10120;SDS011;5100;45.176;5.714;2022-10-22T15:26:07;1.48;;;1.08;;
10120;SDS011;5100;45.176;5.714;2022-10-22T15:28:34;1.60;;;1.27;;
10120;SDS011;5100;45.176;5.714;2022-10-22T15:31:01;1.50;;;1.40;;
10120;SDS011;5100;45.176;5.714;2022-10-22T15:33:28;1.45;;;1.20;;
10120;SDS011;5100;45.176;5.714;2022-10-22T15:35:54;1.30;;;1.20;;
10120;SDS011;5100;45.176;5.714;2022-10-22T15:38:25;2.40;;;1.23;;
10120;SDS011;5100;45.176;5.714;2022-10-22T15:41:02;2.30;;;1.40;;
10120;SDS011;5100;45.176;5.714;2022-10-22T15:43:30;3.78;;;1.40;;
10120;SDS011;5100;45.176;5.714;2022-10-22T15:46:15;1.60;;;1.50;;
10120;SDS011;5100;45.176;5.714;2022-10-22T15:48:43;2.15;;;1.15;;
10120;SDS011;5100;45.176;5.714;2022-10-22T15:51:14;2.15;;;0.93;;
10120;SDS011;5100;45.176;5.714;2022-10-22T15:53:41;1.85;;;1.05;;
10120;SDS011;5100;45.176;5.714;2022-10-22T15:56:22;2.70;;;1.23;;
10120;SDS011;5100;45.176;5.714;2022-10-22T15:58:52;1.25;;;1.10;;
10120;SDS011;5100;45.176;5.714;2022-10-22T16:01:23;0.88;;;0.88;;
10120;SDS011;5100;45.176;5.714;2022-10-22T16:03:51;0.82;;;0.82;;
10120;SDS011;5100;45.176;5.714;2022-10-22T16:09:01;6.15;;;1.35;;
10120;SDS011;5100;45.176;5.714;2022-10-22T16:11:30;1.75;;;0.90;;
10120;SDS011;5100;45.176;5.714;2022-10-22T16:13:56;2.17;;;1.17;;
10120;SDS011;5100;45.176;5.714;2022-10-22T16:16:24;0.93;;;0.93;;
10120;SDS011;5100;45.176;5.714;2022-10-22T16:18:51;1.58;;;1.10;;
10120;SDS011;5100;45.176;5.714;2022-10-22T16:21:19;0.90;;;0.90;;
10120;SDS011;5100;45.176;5.714;2022-10-22T16:23:46;1.55;;;0.95;;
10120;SDS011;5100;45.176;5.714;2022-10-22T16:26:13;1.00;;;1.00;;
10120;SDS011;5100;45.176;5.714;2022-10-22T16:28:40;1.83;;;1.20;;
10120;SDS011;5100;45.176;5.714;2022-10-22T16:31:07;2.70;;;1.10;;
10120;SDS011;5100;45.176;5.714;2022-10-22T16:33:36;3.53;;;1.00;;
10120;SDS011;5100;45.176;5.714;2022-10-22T16:36:14;2.15;;;1.48;;
10120;SDS011;5100;45.176;5.714;2022-10-22T16:38:45;1.17;;;1.05;;
10120;SDS011;5100;45.176;5.714;2022-10-22T16:41:15;2.62;;;1.10;;
10120;SDS011;5100;45.176;5.714;2022-10-22T16:43:46;2.08;;;1.40;;
10120;SDS011;5100;45.176;5.714;2022-10-22T16:46:14;3.00;;;1.20;;
10120;SDS011;5100;45.176;5.714;2022-10-22T16:48:45;1.30;;;1.20;;
10120;SDS011;5100;45.176;5.714;2022-10-22T16:51:12;2.50;;;1.25;;
10120;SDS011;5100;45.176;5.714;2022-10-22T16:53:39;3.20;;;1.48;;
10120;SDS011;5100;45.176;5.714;2022-10-22T16:56:09;3.65;;;1.80;;
10120;SDS011;5100;45.176;5.714;2022-10-22T16:58:36;3.33;;;1.42;;
10120;SDS011;5100;45.176;5.714;2022-10-22T17:01:06;3.08;;;1.60;;
10120;SDS011;5100;45.176;5.714;2022-10-22T17:03:33;2.22;;;1.42;;
10120;SDS011;5100;45.176;5.714;2022-10-22T17:05:59;2.40;;;1.52;;
10120;SDS011;5100;45.176;5.714;2022-10-22T17:08:26;2.55;;;1.33;;